createdAt,value
2019-06-07T00:01:48.138Z,4.13
2019-06-07T00:04:20.830Z,6.50
2019-06-07T00:06:48.685Z,5.77
2019-06-07T00:09:22.397Z,4.50
2019-06-07T00:11:49.167Z,5.87
2019-06-07T00:14:20.897Z,6.67
2019-06-07T00:16:49.638Z,9.40
2019-06-07T00:19:19.167Z,7.13
2019-06-07T00:24:22.023Z,6.97
2019-06-07T00:26:58.172Z,7.23
2019-06-07T00:29:22.248Z,6.57
2019-06-07T00:31:51.675Z,6.10
2019-06-07T00:34:23.008Z,11.07
2019-06-07T00:36:52.220Z,8.17
2019-06-07T00:39:25.074Z,6.87
2019-06-07T00:41:52.709Z,4.50
2019-06-07T00:44:23.474Z,7.27
2019-06-07T00:46:53.219Z,6.67
2019-06-07T00:49:39.835Z,6.13
2019-06-07T00:51:54.062Z,7.87
2019-06-07T00:54:24.820Z,5.40
2019-06-07T00:56:54.777Z,5.90
2019-06-07T00:59:29.131Z,4.17
2019-06-07T01:01:55.562Z,6.80
2019-06-07T01:04:26.709Z,8.00
2019-06-07T01:06:56.210Z,6.20
2019-06-07T01:09:25.796Z,8.10
2019-06-07T01:11:55.257Z,6.53
2019-06-07T01:14:28.117Z,8.03
2019-06-07T01:17:05.202Z,5.83
2019-06-07T01:19:27.851Z,6.40
2019-06-07T01:21:57.746Z,6.30
2019-06-07T01:24:28.102Z,8.97
2019-06-07T01:26:57.703Z,6.83
2019-06-07T01:29:30.314Z,7.37
2019-06-07T01:31:58.239Z,5.37
2019-06-07T01:34:28.902Z,7.67
2019-06-07T01:36:58.526Z,7.00
2019-06-07T01:39:30.978Z,5.53
2019-06-07T01:41:59.191Z,6.03
2019-06-07T01:44:30.704Z,6.93
2019-06-07T01:46:59.740Z,5.10
2019-06-07T01:49:29.805Z,4.67
2019-06-07T01:51:59.553Z,7.23
2019-06-07T01:57:00.063Z,7.23
2019-06-07T01:59:31.597Z,5.80
2019-06-07T02:02:00.714Z,6.70
2019-06-07T02:04:33.196Z,6.40
2019-06-07T02:07:01.213Z,6.80
2019-06-07T02:09:32.044Z,8.60
2019-06-07T02:12:01.728Z,6.80
2019-06-07T02:14:33.602Z,6.03
2019-06-07T02:17:03.170Z,7.53
2019-06-07T02:19:33.446Z,7.67
2019-06-07T02:22:03.321Z,7.37
2019-06-07T02:24:36.031Z,8.47
2019-06-07T02:27:03.976Z,7.57
2019-06-07T02:29:33.768Z,7.67
2019-06-07T02:32:03.470Z,7.70
2019-06-07T02:34:38.593Z,10.10
2019-06-07T02:37:04.379Z,11.60
2019-06-07T02:39:40.215Z,7.50
2019-06-07T02:42:06.653Z,6.23
2019-06-07T02:44:39.454Z,9.93
2019-06-07T02:47:07.191Z,9.33
2019-06-07T02:49:41.182Z,9.63
2019-06-07T02:52:07.822Z,10.73
2019-06-07T02:54:40.458Z,8.73
2019-06-07T02:57:08.260Z,10.77
2019-06-07T03:00:03.122Z,7.63
2019-06-07T03:02:09.018Z,9.20
2019-06-07T03:04:43.963Z,10.17
2019-06-07T03:07:13.495Z,8.87
2019-06-07T03:09:44.524Z,8.70
2019-06-07T03:12:16.483Z,9.67
2019-06-07T03:14:46.531Z,12.47
2019-06-07T03:17:19.421Z,10.53
2019-06-07T03:19:52.791Z,7.77
2019-06-07T03:22:22.448Z,9.37
2019-06-07T03:24:53.266Z,9.33
2019-06-07T03:27:35.082Z,9.73
2019-06-07T03:29:54.604Z,10.23
2019-06-07T03:32:24.103Z,14.37
2019-06-07T03:34:53.489Z,7.77
2019-06-07T03:37:22.863Z,8.13
2019-06-07T03:39:52.243Z,9.10
2019-06-07T03:42:21.641Z,10.17
2019-06-07T03:44:51.069Z,10.27
2019-06-07T03:47:20.485Z,9.63
2019-06-07T03:49:49.921Z,12.43
2019-06-07T03:52:19.308Z,12.27
2019-06-07T03:54:48.698Z,11.23
2019-06-07T03:57:18.070Z,10.13
2019-06-07T03:59:47.450Z,9.97
2019-06-07T04:02:16.827Z,10.20
2019-06-07T04:04:46.224Z,13.17
2019-06-07T04:07:15.598Z,10.47
2019-06-07T04:09:45.007Z,12.97
2019-06-07T04:12:14.351Z,11.13
2019-06-07T04:14:43.734Z,12.53
2019-06-07T04:17:13.148Z,10.73
2019-06-07T04:19:43.532Z,11.57
2019-06-07T04:22:13.182Z,10.07
2019-06-07T04:24:42.669Z,9.07
2019-06-07T04:27:12.040Z,10.30
2019-06-07T04:30:05.862Z,10.63
2019-06-07T04:32:12.515Z,11.33
2019-06-07T04:34:43.069Z,11.03
2019-06-07T04:37:13.896Z,9.30
2019-06-07T04:39:45.236Z,12.10
2019-06-07T04:42:17.575Z,16.70
2019-06-07T04:44:50.240Z,12.77
2019-06-07T04:47:20.733Z,13.37
2019-06-07T04:49:51.355Z,9.60
2019-06-07T04:52:20.758Z,10.83
2019-06-07T04:54:50.174Z,14.53
2019-06-07T04:57:19.561Z,11.17
2019-06-07T05:00:22.714Z,12.43
2019-06-07T05:02:20.847Z,10.37
2019-06-07T05:04:50.225Z,11.50
2019-06-07T05:07:19.633Z,11.47
2019-06-07T05:09:49.016Z,12.00
2019-06-07T05:12:18.473Z,13.17
2019-06-07T05:14:47.847Z,12.80
2019-06-07T05:17:17.223Z,9.17
2019-06-07T05:19:46.652Z,10.80
2019-06-07T05:22:15.988Z,10.70
2019-06-07T05:24:45.364Z,9.07
2019-06-07T05:27:14.905Z,8.57
2019-06-07T05:29:58.393Z,10.60
2019-06-07T05:32:15.985Z,9.17
2019-06-07T05:34:47.280Z,9.63
2019-06-07T05:37:16.536Z,9.23
2019-06-07T05:39:46.738Z,11.93
2019-06-07T05:42:16.461Z,8.60
2019-06-07T05:44:46.046Z,8.40
2019-06-07T05:47:15.538Z,8.03
2019-06-07T05:49:47.171Z,7.23
2019-06-07T05:52:16.107Z,9.63
2019-06-07T05:54:46.999Z,8.07
2019-06-07T05:57:16.616Z,7.97
2019-06-07T05:59:47.629Z,10.10
2019-06-07T06:02:22.801Z,8.57
2019-06-07T06:04:49.421Z,9.27
2019-06-07T06:07:19.121Z,7.40
2019-06-07T06:09:48.483Z,7.50
2019-06-07T06:12:34.001Z,6.37
2019-06-07T06:14:49.027Z,7.30
2019-06-07T06:17:18.416Z,6.90
2019-06-07T06:19:52.497Z,10.80
2019-06-07T06:22:18.975Z,9.43
2019-06-07T06:25:28.839Z,6.83
2019-06-07T06:28:02.480Z,7.93
2019-06-07T06:29:52.468Z,8.07
2019-06-07T06:34:55.634Z,7.13
2019-06-07T06:37:24.193Z,9.87
2019-06-07T06:39:53.571Z,6.70
2019-06-07T06:42:22.985Z,10.63
2019-06-07T06:44:54.248Z,8.00
2019-06-07T06:47:23.453Z,9.33
2019-06-07T06:49:54.260Z,5.60
2019-06-07T06:52:24.003Z,7.03
2019-06-07T06:54:59.975Z,10.27
2019-06-07T06:57:24.687Z,7.63
2019-06-07T06:59:54.097Z,6.40
2019-06-07T07:02:23.442Z,6.37
2019-06-07T07:04:54.041Z,6.43
2019-06-07T07:07:26.248Z,5.17
2019-06-07T07:09:59.443Z,5.67
2019-06-07T07:12:28.347Z,6.47
2019-06-07T07:14:57.794Z,7.50
2019-06-07T07:17:47.979Z,10.63
2019-06-07T07:19:58.284Z,7.47
2019-06-07T07:22:27.651Z,4.53
2019-06-07T07:24:57.030Z,4.97
2019-06-07T07:27:26.409Z,3.90
2019-06-07T07:30:34.240Z,5.60
2019-06-07T07:32:26.903Z,3.77
2019-06-07T07:35:00.492Z,3.83
2019-06-07T07:37:27.399Z,5.25
2019-06-07T07:40:01.736Z,3.85
2019-06-07T07:42:27.859Z,3.55
2019-06-07T07:44:57.242Z,5.75
2019-06-07T07:47:26.616Z,3.45
2019-06-07T07:49:58.856Z,3.72
2019-06-07T07:52:27.093Z,5.55
2019-06-07T07:54:58.339Z,3.92
2019-06-07T07:57:28.349Z,3.27
2019-06-07T08:00:25.303Z,4.22
2019-06-07T08:02:28.829Z,3.10
2019-06-07T08:05:23.451Z,3.65
2019-06-07T08:07:30.458Z,5.83
2019-06-07T08:10:03.591Z,5.10
2019-06-07T08:12:54.638Z,6.50
2019-06-07T08:15:03.659Z,5.28
2019-06-07T08:17:33.385Z,4.10
2019-06-07T08:20:03.325Z,2.90
2019-06-07T08:22:32.758Z,3.12
2019-06-07T08:25:04.242Z,4.08
2019-06-07T08:27:33.238Z,4.60
2019-06-07T08:30:25.681Z,3.72
2019-06-07T08:32:33.896Z,2.67
2019-06-07T08:35:06.875Z,2.95
2019-06-07T08:38:15.204Z,4.00
2019-06-07T08:40:09.293Z,3.22
2019-06-07T08:42:59.425Z,5.55
2019-06-07T08:45:11.197Z,5.78
2019-06-07T08:47:40.730Z,2.55
2019-06-07T08:50:13.604Z,3.10
2019-06-07T08:52:43.063Z,3.83
2019-06-07T08:55:14.400Z,3.62
2019-06-07T08:57:44.117Z,3.05
2019-06-07T09:00:45.228Z,3.80
2019-06-07T09:02:45.210Z,6.78
2019-06-07T09:05:15.503Z,4.30
2019-06-07T09:07:44.883Z,4.70
2019-06-07T09:10:15.746Z,3.87
2019-06-07T09:12:45.178Z,3.83
2019-06-07T09:15:23.282Z,3.27
2019-06-07T09:18:30.169Z,3.65
2019-06-07T09:20:35.790Z,2.52
2019-06-07T09:22:49.582Z,5.17
2019-06-07T09:25:21.629Z,2.80
2019-06-07T09:27:50.464Z,4.15
2019-06-07T09:30:41.704Z,5.10
2019-06-07T09:33:12.015Z,5.40
2019-06-07T09:35:41.725Z,2.30
2019-06-07T09:38:24.186Z,4.22
2019-06-07T09:40:42.471Z,4.00
2019-06-07T09:44:00.010Z,2.60
2019-06-07T09:45:43.084Z,3.50
2019-06-07T09:48:16.567Z,5.17
2019-06-07T09:50:43.646Z,2.90
2019-06-07T09:53:21.684Z,3.62
2019-06-07T09:55:44.268Z,3.10
2019-06-07T10:00:44.813Z,3.70
2019-06-07T10:03:21.425Z,3.22
2019-06-07T10:05:45.395Z,4.53
2019-06-07T10:09:15.038Z,2.98
2019-06-07T10:10:45.880Z,2.47
2019-06-07T10:13:15.254Z,3.47
2019-06-07T10:15:44.634Z,4.30
2019-06-07T10:18:14.007Z,5.45
2019-06-07T10:20:43.385Z,2.87
2019-06-07T10:23:12.771Z,2.85
2019-06-07T10:25:42.208Z,5.28
2019-06-07T10:28:11.587Z,2.67
2019-06-07T10:30:40.977Z,4.67
2019-06-07T10:33:10.548Z,2.77
2019-06-07T10:35:40.068Z,4.87
2019-06-07T10:38:10.648Z,4.42
2019-06-07T10:40:40.334Z,4.12
2019-06-07T10:43:14.203Z,3.27
2019-06-07T10:45:41.138Z,3.27
2019-06-07T10:48:11.710Z,1.80
2019-06-07T10:50:41.158Z,2.30
2019-06-07T10:53:10.852Z,2.58
2019-06-07T10:55:40.562Z,2.62
2019-06-07T10:58:11.204Z,4.75
2019-06-07T11:00:40.694Z,2.33
2019-06-07T11:03:10.075Z,2.00
2019-06-07T11:05:39.448Z,3.47
2019-06-07T11:08:10.187Z,3.85
2019-06-07T11:10:39.759Z,5.45
2019-06-07T11:13:10.406Z,2.35
2019-06-07T11:15:39.802Z,4.15
2019-06-07T11:18:10.288Z,2.10
2019-06-07T11:20:39.740Z,2.45
2019-06-07T11:23:10.141Z,5.10
2019-06-07T11:25:39.574Z,4.92
2019-06-07T11:28:10.402Z,5.30
2019-06-07T11:30:40.011Z,3.80
2019-06-07T11:33:11.904Z,2.00
2019-06-07T11:35:40.497Z,2.08
2019-06-07T11:38:10.558Z,3.15
2019-06-07T11:40:40.045Z,3.55
2019-06-07T11:43:10.668Z,3.20
2019-06-07T11:45:40.182Z,2.67
2019-06-07T11:48:09.555Z,3.15
2019-06-07T11:50:38.943Z,3.30
2019-06-07T11:53:08.618Z,3.37
2019-06-07T11:55:38.089Z,2.75
2019-06-07T11:58:11.661Z,6.10
2019-06-07T12:00:38.642Z,3.25
2019-06-07T12:03:09.449Z,3.22
2019-06-07T12:05:38.990Z,4.10
2019-06-07T12:08:08.368Z,2.42
2019-06-07T12:10:42.572Z,4.20
2019-06-07T12:13:08.855Z,5.00
2019-06-07T12:15:38.232Z,5.53
2019-06-07T12:18:09.113Z,4.75
2019-06-07T12:20:38.671Z,2.33
2019-06-07T12:23:09.890Z,3.95
2019-06-07T12:25:39.382Z,3.52
2019-06-07T12:28:08.768Z,2.95
2019-06-07T12:30:38.152Z,5.90
2019-06-07T12:33:07.536Z,1.77
2019-06-07T12:35:36.907Z,2.12
2019-06-07T12:38:06.291Z,3.70
2019-06-07T12:40:35.666Z,1.60
2019-06-07T12:43:05.504Z,2.65
2019-06-07T12:45:44.360Z,2.00
2019-06-07T12:48:06.429Z,2.95
2019-06-07T12:50:44.017Z,2.77
2019-06-07T12:53:07.317Z,2.17
2019-06-07T12:55:36.689Z,3.15
2019-06-07T12:58:06.067Z,4.45
2019-06-07T13:00:35.443Z,4.40
2019-06-07T13:03:05.392Z,16.23
2019-06-07T13:05:34.792Z,2.10
2019-06-07T13:08:04.592Z,4.55
2019-06-07T13:10:34.079Z,3.12
2019-06-07T13:13:03.524Z,3.62
2019-06-07T13:15:32.905Z,2.52
2019-06-07T13:18:02.280Z,3.55
2019-06-07T13:20:31.847Z,4.55
2019-06-07T13:23:01.342Z,1.62
2019-06-07T13:25:45.553Z,5.05
2019-06-07T13:28:01.917Z,2.95
2019-06-07T13:30:31.532Z,1.30
2019-06-07T13:33:00.904Z,3.00
2019-06-07T13:35:30.290Z,3.60
2019-06-07T13:37:59.889Z,3.85
2019-06-07T13:40:29.382Z,2.83
2019-06-07T13:42:59.892Z,2.12
2019-06-07T13:45:29.272Z,3.83
2019-06-07T13:47:58.652Z,10.25
2019-06-07T13:50:28.676Z,5.80
2019-06-07T13:52:58.151Z,4.65
2019-06-07T13:55:28.016Z,2.75
2019-06-07T13:57:57.582Z,3.90
2019-06-07T14:00:28.492Z,4.33
2019-06-07T14:02:57.855Z,3.72
2019-06-07T14:05:27.375Z,2.90
2019-06-07T14:07:56.883Z,1.62
2019-06-07T14:10:27.476Z,2.20
2019-06-07T14:12:57.084Z,2.35
2019-06-07T14:15:26.574Z,2.95
2019-06-07T14:17:55.995Z,2.10
2019-06-07T14:20:30.787Z,3.08
2019-06-07T14:22:56.555Z,2.12
2019-06-07T14:25:27.296Z,2.85
2019-06-07T14:27:56.804Z,2.02
2019-06-07T14:30:26.357Z,3.20
2019-06-07T14:32:55.808Z,3.22
2019-06-07T14:35:26.608Z,2.77
2019-06-07T14:37:56.059Z,1.77
2019-06-07T14:40:25.486Z,1.85
2019-06-07T14:42:54.842Z,2.70
2019-06-07T14:45:25.467Z,2.40
2019-06-07T14:47:54.845Z,2.25
2019-06-07T14:50:24.233Z,3.52
2019-06-07T14:52:53.629Z,2.50
2019-06-07T14:55:23.018Z,3.02
2019-06-07T14:57:52.434Z,3.20
2019-06-07T15:00:32.480Z,2.75
2019-06-07T15:03:01.899Z,4.72
2019-06-07T15:05:32.905Z,2.25
2019-06-07T15:08:02.351Z,2.00
2019-06-07T15:10:32.338Z,2.77
2019-06-07T15:13:02.905Z,2.80
2019-06-07T15:15:32.889Z,4.20
2019-06-07T15:18:02.393Z,4.03
2019-06-07T15:20:32.172Z,2.15
2019-06-07T15:23:01.635Z,5.37
2019-06-07T15:25:31.214Z,3.22
2019-06-07T15:28:00.672Z,2.95
2019-06-07T15:30:31.518Z,4.83
2019-06-07T15:33:00.966Z,4.35
2019-06-07T15:35:30.338Z,4.47
2019-06-07T15:37:59.711Z,4.58
2019-06-07T15:40:29.161Z,3.22
2019-06-07T15:42:58.594Z,6.25
2019-06-07T15:45:29.292Z,2.65
2019-06-07T15:47:58.763Z,5.62
2019-06-07T15:50:29.254Z,2.92
2019-06-07T15:52:59.312Z,2.98
2019-06-07T15:55:28.697Z,2.33
2019-06-07T15:57:58.072Z,4.72
2019-06-07T16:00:27.877Z,4.47
2019-06-07T16:02:57.256Z,2.05
2019-06-07T16:05:26.707Z,3.50
2019-06-07T16:07:56.085Z,1.95
2019-06-07T16:10:25.465Z,3.50
2019-06-07T16:13:00.646Z,2.67
2019-06-07T16:15:26.011Z,1.82
2019-06-07T16:17:55.384Z,2.00
2019-06-07T16:20:24.837Z,2.45
2019-06-07T16:22:54.218Z,3.17
2019-06-07T16:25:23.770Z,7.50
2019-06-07T16:27:53.142Z,2.02
2019-06-07T16:30:22.864Z,2.35
2019-06-07T16:32:52.312Z,2.65
2019-06-07T16:35:21.762Z,2.77
2019-06-07T16:37:52.404Z,1.95
2019-06-07T16:40:22.716Z,4.00
2019-06-07T16:42:52.093Z,4.03
2019-06-07T16:45:21.983Z,1.98
2019-06-07T16:47:51.401Z,2.65
2019-06-07T16:50:20.902Z,1.05
2019-06-07T16:52:50.288Z,1.17
2019-06-07T16:55:20.165Z,0.85
2019-06-07T16:57:49.542Z,2.00
2019-06-07T17:00:20.197Z,1.25
2019-06-07T17:02:49.913Z,1.35
2019-06-07T17:05:21.480Z,1.90
2019-06-07T17:07:50.861Z,1.60
2019-06-07T17:10:21.452Z,2.10
2019-06-07T17:12:50.924Z,2.40
2019-06-07T17:15:20.637Z,2.50
2019-06-07T17:17:50.015Z,2.80
2019-06-07T17:20:19.929Z,1.77
2019-06-07T17:22:49.761Z,2.43
2019-06-07T17:25:20.009Z,4.57
2019-06-07T17:27:50.169Z,1.77
2019-06-07T17:30:20.943Z,1.90
2019-06-07T17:32:57.679Z,0.87
2019-06-07T17:35:21.580Z,0.90
2019-06-07T17:37:51.563Z,2.90
2019-06-07T17:40:21.458Z,0.73
2019-06-07T17:42:51.100Z,1.63
2019-06-07T17:45:21.408Z,2.90
2019-06-07T17:47:52.106Z,1.33
2019-06-07T17:50:22.135Z,1.40
2019-06-07T17:52:52.068Z,1.27
2019-06-07T17:55:21.651Z,2.63
2019-06-07T17:57:51.019Z,1.27
2019-06-07T18:00:29.447Z,1.67
2019-06-07T18:02:54.500Z,2.10
2019-06-07T18:05:24.050Z,3.27
2019-06-07T18:07:54.176Z,3.47
2019-06-07T18:10:37.605Z,2.33
2019-06-07T18:13:07.675Z,1.27
2019-06-07T18:15:44.360Z,1.13
2019-06-07T18:18:14.250Z,1.07
2019-06-07T18:20:45.123Z,1.70
2019-06-07T18:23:14.550Z,0.60
2019-06-07T18:25:43.929Z,1.13
2019-06-07T18:28:13.302Z,1.40
2019-06-07T18:30:42.676Z,0.47
2019-06-07T18:33:12.062Z,0.50
2019-06-07T18:35:41.430Z,3.57
2019-06-07T18:38:11.232Z,1.47
2019-06-07T18:40:41.968Z,0.63
2019-06-07T18:43:11.362Z,0.83
2019-06-07T18:45:40.744Z,0.80
2019-06-07T18:48:10.128Z,1.03
2019-06-07T18:50:39.504Z,0.60
2019-06-07T18:53:08.879Z,1.50
2019-06-07T18:55:38.343Z,1.57
2019-06-07T18:58:07.727Z,0.90
2019-06-07T19:00:37.504Z,1.07
2019-06-07T19:03:07.240Z,3.13
2019-06-07T19:05:36.635Z,2.10
2019-06-07T19:08:06.010Z,1.53
2019-06-07T19:10:35.390Z,1.43
2019-06-07T19:13:04.771Z,1.53
2019-06-07T19:15:34.331Z,0.80
2019-06-07T19:18:03.741Z,2.00
2019-06-07T19:20:33.118Z,0.63
2019-06-07T19:23:02.489Z,0.30
2019-06-07T19:25:31.874Z,1.60
2019-06-07T19:28:01.257Z,1.50
2019-06-07T19:30:30.639Z,0.70
2019-06-07T19:33:01.369Z,1.47
2019-06-07T19:35:30.960Z,1.13
2019-06-07T19:38:00.568Z,1.33
2019-06-07T19:40:30.082Z,2.73
2019-06-07T19:43:00.634Z,1.10
2019-06-07T19:45:31.690Z,2.53
2019-06-07T19:48:02.663Z,3.50
2019-06-07T19:50:32.246Z,1.60
2019-06-07T19:53:01.704Z,1.10
2019-06-07T19:55:31.163Z,6.73
2019-06-07T19:58:01.694Z,1.17
2019-06-07T20:00:31.197Z,1.63
2019-06-07T20:03:02.089Z,1.50
2019-06-07T20:05:33.859Z,1.07
2019-06-07T20:08:02.914Z,3.23
2019-06-07T20:10:32.282Z,3.07
2019-06-07T20:13:02.970Z,2.27
2019-06-07T20:15:32.444Z,1.10
2019-06-07T20:18:03.235Z,0.63
2019-06-07T20:20:32.867Z,1.77
2019-06-07T20:23:03.034Z,0.90
2019-06-07T20:25:32.573Z,1.93
2019-06-07T20:28:03.280Z,1.73
2019-06-07T20:30:32.742Z,0.50
2019-06-07T20:33:02.132Z,1.77
2019-06-07T20:35:31.512Z,1.00
2019-06-07T20:38:01.146Z,0.53
2019-06-07T20:40:30.538Z,1.43
2019-06-07T20:42:59.986Z,1.70
2019-06-07T20:45:33.640Z,1.43
2019-06-07T20:48:00.484Z,1.10
2019-06-07T20:50:29.864Z,1.10
2019-06-07T20:53:01.112Z,1.10
2019-06-07T20:55:30.356Z,1.93
2019-06-07T20:58:00.804Z,1.87
2019-06-07T21:00:30.284Z,1.00
2019-06-07T21:03:01.007Z,0.67
2019-06-07T21:05:30.568Z,1.20
2019-06-07T21:08:01.414Z,0.97
2019-06-07T21:10:31.078Z,2.77
2019-06-07T21:13:01.630Z,2.50
2019-06-07T21:15:31.204Z,4.10
2019-06-07T21:18:00.596Z,1.50
2019-06-07T21:20:29.961Z,0.40
2019-06-07T21:23:00.641Z,1.53
2019-06-07T21:25:30.087Z,1.13
2019-06-07T21:28:00.837Z,1.67
2019-06-07T21:30:30.328Z,2.37
2019-06-07T21:32:59.715Z,1.67
2019-06-07T21:35:29.086Z,1.43
2019-06-07T21:37:58.479Z,1.40
2019-06-07T21:40:27.861Z,1.00
2019-06-07T21:42:57.239Z,5.67
2019-06-07T21:45:26.621Z,2.83
2019-06-07T21:47:55.988Z,1.07
2019-06-07T21:50:25.364Z,3.23
2019-06-07T21:52:54.746Z,1.60
2019-06-07T21:55:24.116Z,0.67
2019-06-07T21:57:53.502Z,3.03
2019-06-07T22:00:31.866Z,1.70
2019-06-07T22:03:01.243Z,1.80
2019-06-07T22:05:30.626Z,2.83
2019-06-07T22:08:00.003Z,3.30
2019-06-07T22:10:29.376Z,2.87
2019-06-07T22:12:58.755Z,5.60
2019-06-07T22:15:33.959Z,2.33
2019-06-07T22:17:59.242Z,2.43
2019-06-07T22:20:28.617Z,3.37
2019-06-07T22:22:57.995Z,2.67
2019-06-07T22:25:27.368Z,1.33
2019-06-07T22:27:56.749Z,2.20
2019-06-07T22:30:26.122Z,2.67
2019-06-07T22:32:55.500Z,1.37
2019-06-07T22:35:24.875Z,7.30
2019-06-07T22:37:54.251Z,1.10
2019-06-07T22:40:23.638Z,2.90
2019-06-07T22:42:53.272Z,2.97
2019-06-07T22:45:22.646Z,6.50
2019-06-07T22:47:52.038Z,2.57
2019-06-07T22:50:21.747Z,1.43
2019-06-07T22:52:51.212Z,10.70
2019-06-07T22:55:20.659Z,3.23
2019-06-07T22:57:54.722Z,6.80
2019-06-07T23:00:25.311Z,6.70
2019-06-07T23:02:55.757Z,1.53
2019-06-07T23:05:25.556Z,1.20
2019-06-07T23:07:54.934Z,0.87
2019-06-07T23:10:24.446Z,2.57
2019-06-07T23:12:53.823Z,1.43
2019-06-07T23:15:23.197Z,5.17
2019-06-07T23:17:54.108Z,2.37
2019-06-07T23:20:24.323Z,2.33
2019-06-07T23:22:53.708Z,1.80
2019-06-07T23:25:24.693Z,3.33
2019-06-07T23:27:54.282Z,0.53
2019-06-07T23:30:24.195Z,4.03
2019-06-07T23:32:53.577Z,2.67
2019-06-07T23:35:22.966Z,12.30
2019-06-07T23:37:52.360Z,3.00
2019-06-07T23:40:21.800Z,5.27
2019-06-07T23:42:51.181Z,1.43
2019-06-07T23:45:21.737Z,1.80
2019-06-07T23:47:51.310Z,1.67
2019-06-07T23:50:21.892Z,2.83
2019-06-07T23:52:51.310Z,4.23
2019-06-07T23:55:22.159Z,2.20
2019-06-07T23:57:51.754Z,0.40
